Hundvaag 1 weather for May 1998
Month no. 131
Obs.
Da.
Temp. Dew Point Precip. Wind
Speed
Wind gusts Cloud cover Press. Humidity Wind dir. Sunny OPT
01.05.1998 8,9   2,0     8       1  
02.05.1998 5,4   0,0     9       1  
03.05.1998 7,8   0,0     10       1  
04.05.1998 5,8   0,0     3       1  
05.05.1998 5,9   0,0     9       1  
06.05.1998 3,7   0,0     10       1  
07.05.1998 5,7   0,0     7       1  
08.05.1998 8,0   0,0     8       1  
09.05.1998 9,3   0,0     0       1  
10.05.1998 12,3   0,0     0       1  
11.05.1998 5,5   0,0     7       1  
12.05.1998 5,9   0,0     10       1  
13.05.1998 9,0   0,0     10       1  
14.05.1998 8,8   0,0     10       1  
15.05.1998 7,5   0,0     10       1  
16.05.1998 13,6   0,0     9       1  
17.05.1998 9,6   0,0     10       1  
18.05.1998 9,0   0,0     10       1  
19.05.1998 13,6   0,0     0       1  
20.05.1998 6,8   0,0     9       1  
21.05.1998 7,6   8,0     8       1  
22.05.1998 5,5   0,0     10       1  
23.05.1998 9,0   0,0     2       1  
24.05.1998 10,0   0,0     0       1  
25.05.1998 9,1   2,0     0          
26.05.1998 8,7   3,0     0          
27.05.1998 8,5   16,0     0       1  
28.05.1998 7,5   6,0     10       1  
29.05.1998 9,9   0,0     10       1  
30.05.1998 16,7   0,0     10       1  
31.05.1998 16,8   0,0     9       1  
Avrg/Sum 8,8   37,0     6,7       29